Time;durP1;ratioP1;P1;durP2;ratioP2;P2;SDS_P1;SDS_P2;PMS_P1;PMS_P2;Temp;Humidity;BMP_temperature;BMP_pressure;BME280_temperature;BME280_humidity;BME280_pressure;Samples;Min_cycle;Max_cycle;Signal;HPM_P1;HPM_P2
2022/05/08 00:00:59;;;;;;;;;;;;;;;18.91;52.60;100319.31;4413060;32;20024;-81
2022/05/08 00:03:27;;;;;;;;;;;;;;;18.80;53.09;100316.81;4416554;32;20453;-80
2022/05/08 00:05:53;;;;;;;;;;;;;;;18.85;52.64;100314.97;4417097;32;20000;-81
2022/05/08 00:08:21;;;;;;;;;;;;;;;18.87;52.68;100313.22;4415615;32;20004;-81
2022/05/08 00:10:48;;;;;;;;;;;;;;;18.79;52.63;100307.19;4415069;32;19969;-80
2022/05/08 00:13:14;;;;;;;;;;;;;;;18.80;52.76;100306.31;4416236;32;20401;-81
2022/05/08 00:15:41;;;;;;;;;;;;;;;18.53;53.50;100303.00;4415283;32;19993;-80
2022/05/08 00:18:08;;;;;;;;;;;;;;;18.69;53.13;100302.88;4414908;32;20035;-79
2022/05/08 00:20:35;;;;;;;;;;;;;;;18.55;53.33;100301.25;4416401;32;19984;-79
2022/05/08 00:23:05;;;;;;;;;;;;;;;18.36;53.89;100294.44;4415928;32;20772;-80
2022/05/08 00:25:33;;;;;;;;;;;;;;;18.40;53.79;100301.37;4416896;32;20006;-80
2022/05/08 00:28:00;;;;;;;;;;;;;;;18.50;53.53;100295.19;4415906;32;19992;-80
2022/05/08 00:30:27;;;;;;;;;;;;;;;18.44;53.77;100290.03;4416323;32;20053;-81
2022/05/08 00:32:54;;;;;;;;;;;;;;;18.51;53.29;100298.69;4414976;32;19997;-80
2022/05/08 00:35:21;;;;;;;;;;;;;;;18.52;53.33;100292.56;4416119;32;20038;-80
2022/05/08 00:37:48;;;;;;;;;;;;;;;18.50;53.20;100292.56;4416816;32;20053;-80
2022/05/08 00:40:15;;;;;;;;;;;;;;;18.41;53.39;100290.03;4416446;32;20111;-80
2022/05/08 00:42:42;;;;;;;;;;;;;;;18.31;53.58;100290.97;4414923;32;20031;-81
2022/05/08 00:45:09;;;;;;;;;;;;;;;18.28;53.62;100285.75;4415623;32;19982;-80
2022/05/08 00:47:37;;;;;;;;;;;;;;;18.19;54.00;100281.50;4415782;32;20022;-81
2022/05/08 00:50:04;;;;;;;;;;;;;;;18.26;53.83;100282.31;4415842;32;20045;-79
2022/05/08 00:52:32;;;;;;;;;;;;;;;18.21;53.89;100284.09;4414643;32;19986;-81
2022/05/08 00:54:59;;;;;;;;;;;;;;;17.97;54.68;100280.78;4416013;32;20003;-81
2022/05/08 00:57:26;;;;;;;;;;;;;;;17.99;54.57;100281.63;4415890;32;20338;-79
2022/05/08 00:59:57;;;;;;;;;;;;;;;17.86;54.76;100283.44;4416358;32;20013;-80
2022/05/08 01:02:24;;;;;;;;;;;;;;;18.00;54.33;100275.53;4415095;32;19986;-80
2022/05/08 01:04:51;;;;;;;;;;;;;;;17.89;54.65;100277.31;4415198;32;20000;-81
2022/05/08 01:07:18;;;;;;;;;;;;;;;17.93;54.60;100279.03;4415409;32;19996;-79
2022/05/08 01:09:45;;;;;;;;;;;;;;;17.94;54.62;100277.31;4414251;32;19986;-80
2022/05/08 01:12:12;;;;;;;;;;;;;;;17.79;54.94;100275.66;4402194;32;20241;-81
2022/05/08 01:14:38;;;;;;;;;;;;;;;17.91;54.21;100270.34;4415561;32;19990;-79
2022/05/08 01:17:05;;;;;;;;;;;;;;;17.81;54.35;100274.78;4415017;32;19982;-79
2022/05/08 01:19:33;;;;;;;;;;;;;;;17.81;54.44;100273.91;4415934;32;19978;-79
2022/05/08 01:22:00;;;;;;;;;;;;;;;17.81;54.53;100284.37;4415668;32;19997;-80
2022/05/08 01:24:27;;;;;;;;;;;;;;;17.64;55.09;100282.72;4407692;32;20477;-80
2022/05/08 01:26:53;;;;;;;;;;;;;;;17.73;54.79;100275.66;4415035;32;20020;-80
2022/05/08 01:29:20;;;;;;;;;;;;;;;17.73;54.15;100278.28;4415136;32;19987;-80
2022/05/08 01:31:47;;;;;;;;;;;;;;;17.67;54.52;100282.66;4415036;32;19994;-79
2022/05/08 01:34:14;;;;;;;;;;;;;;;17.63;54.48;100280.06;4414541;32;19998;-79
2022/05/08 01:36:41;;;;;;;;;;;;;;;17.55;54.78;100282.75;4413979;32;19998;-80
2022/05/08 01:39:08;;;;;;;;;;;;;;;17.47;55.47;100279.28;4415819;32;19982;-80
2022/05/08 01:41:35;;;;;;;;;;;;;;;17.67;54.45;100279.19;4413975;32;20039;-80
2022/05/08 01:44:02;;;;;;;;;;;;;;;17.61;54.79;100277.50;4415581;32;19985;-80
2022/05/08 01:46:29;;;;;;;;;;;;;;;17.67;54.06;100277.41;4415677;32;20038;-79
2022/05/08 01:48:56;;;;;;;;;;;;;;;17.36;54.99;100281.09;4415379;32;20081;-79
2022/05/08 01:51:24;;;;;;;;;;;;;;;17.44;54.88;100279.31;4415419;32;19982;-79
2022/05/08 01:53:51;;;;;;;;;;;;;;;17.46;55.00;100282.78;4412194;32;19994;-79
2022/05/08 01:56:19;;;;;;;;;;;;;;;17.53;54.80;100279.25;4415335;32;19986;-81
2022/05/08 01:58:48;;;;;;;;;;;;;;;17.50;54.47;100281.91;4415496;32;19978;-80
2022/05/08 02:01:17;;;;;;;;;;;;;;;17.29;55.53;100279.38;4412740;32;20008;-79
2022/05/08 02:03:45;;;;;;;;;;;;;;;17.50;54.54;100278.41;4414970;32;19989;-79
2022/05/08 02:06:14;;;;;;;;;;;;;;;17.40;55.03;100282.81;4414053;32;20346;-79
2022/05/08 02:08:43;;;;;;;;;;;;;;;17.54;54.69;100274.87;4415098;32;19978;-79
2022/05/08 02:11:10;;;;;;;;;;;;;;;17.50;54.62;100278.41;4415244;32;19986;-80
2022/05/08 02:13:37;;;;;;;;;;;;;;;17.58;54.33;100272.25;4416060;32;20001;-80
2022/05/08 02:16:04;;;;;;;;;;;;;;;17.62;54.20;100278.34;4414511;32;19999;-81
2022/05/08 02:18:33;;;;;;;;;;;;;;;17.48;54.72;100281.03;4415616;32;19982;-80
2022/05/08 02:21:00;;;;;;;;;;;;;;;17.38;54.93;100274.97;4415536;32;19997;-80
2022/05/08 02:23:29;;;;;;;;;;;;;;;17.28;55.46;100272.41;4415646;32;19993;-79
2022/05/08 02:25:57;;;;;;;;;;;;;;;17.29;55.20;100275.00;4414693;32;19990;-80
2022/05/08 02:28:24;;;;;;;;;;;;;;;17.30;54.69;100275.91;4414560;32;19984;-81
2022/05/08 02:30:51;;;;;;;;;;;;;;;17.18;55.00;100272.44;4415129;32;20100;-80
2022/05/08 02:33:17;;;;;;;;;;;;;;;17.26;54.61;100274.16;4414885;32;20038;-80
2022/05/08 02:35:44;;;;;;;;;;;;;;;17.09;55.08;100272.47;4414682;32;19982;-80
2022/05/08 02:38:11;;;;;;;;;;;;;;;17.13;55.07;100274.22;4415354;32;20019;-80
2022/05/08 02:40:38;;;;;;;;;;;;;;;17.08;55.01;100275.97;4415207;32;20271;-80
2022/05/08 02:43:05;;;;;;;;;;;;;;;17.07;55.12;100279.47;4416860;32;19990;-79
2022/05/08 02:45:32;;;;;;;;;;;;;;;17.02;55.22;100286.44;4417394;32;20017;-79
2022/05/08 02:47:59;;;;;;;;;;;;;;;17.00;54.92;100280.34;4416946;32;19986;-80
2022/05/08 02:50:26;;;;;;;;;;;;;;;17.00;55.03;100282.97;4416916;32;19997;-79
2022/05/08 02:52:52;;;;;;;;;;;;;;;17.10;54.96;100284.69;4416830;32;19989;-80
2022/05/08 03:00:51;;;;;;;;;;;;;;;17.08;54.95;100291.66;4416579;32;19989;-80
2022/05/08 03:03:18;;;;;;;;;;;;;;;16.98;55.09;100289.09;4415793;32;19970;-79
2022/05/08 03:05:47;;;;;;;;;;;;;;;16.68;55.92;100299.56;4416663;32;19998;-79
2022/05/08 03:08:15;;;;;;;;;;;;;;;16.87;55.73;100295.19;4415328;32;19988;-80
2022/05/08 03:13:29;;;;;;;;;;;;;;;16.74;55.78;100296.06;4402085;32;20032;-79
2022/05/08 03:15:56;;;;;;;;;;;;;;;16.69;55.77;100298.72;4415006;32;19990;-79
2022/05/08 03:18:23;;;;;;;;;;;;;;;16.63;56.40;100309.16;4416650;32;20022;-79
2022/05/08 03:20:50;;;;;;;;;;;;;;;16.77;55.83;100296.09;4416589;32;19974;-79
2022/05/08 03:23:17;;;;;;;;;;;;;;;16.65;55.52;100303.91;4416654;32;20006;-80
2022/05/08 03:25:43;;;;;;;;;;;;;;;16.66;55.62;100309.16;4282723;32;20062;-80
2022/05/08 03:28:12;;;;;;;;;;;;;;;16.88;54.77;100309.13;4315258;32;20027;-80
2022/05/08 03:30:40;;;;;;;;;;;;;;;16.64;55.67;100308.28;4275342;32;19997;-80
2022/05/08 03:33:08;;;;;;;;;;;;;;;16.68;55.48;100302.16;4416837;32;19985;-80
2022/05/08 03:35:36;;;;;;;;;;;;;;;16.62;55.53;100307.41;4416723;32;19999;-80
2022/05/08 03:38:03;;;;;;;;;;;;;;;16.77;55.16;100310.91;4416543;32;20371;-80
2022/05/08 03:40:30;;;;;;;;;;;;;;;16.53;56.04;100312.66;4414970;32;19990;-80
2022/05/08 03:42:57;;;;;;;;;;;;;;;16.69;55.73;100306.56;4416589;32;20365;-80
2022/05/08 03:45:25;;;;;;;;;;;;;;;16.48;56.37;100314.41;4416584;32;20031;-80
2022/05/08 03:47:52;;;;;;;;;;;;;;;16.44;56.60;100312.66;4416680;32;20305;-80
2022/05/08 03:50:19;;;;;;;;;;;;;;;16.48;56.66;100320.50;4423114;32;20437;-79
2022/05/08 03:52:47;;;;;;;;;;;;;;;16.54;56.45;100322.25;4409647;32;19978;-79
2022/05/08 03:55:15;;;;;;;;;;;;;;;16.42;57.11;100330.06;4415089;32;20477;-80
2022/05/08 03:57:43;;;;;;;;;;;;;;;16.48;56.84;100330.06;4416330;32;20061;-79
2022/05/08 04:00:10;;;;;;;;;;;;;;;16.47;57.17;100328.34;4416768;32;20496;-79
2022/05/08 04:02:38;;;;;;;;;;;;;;;16.49;57.29;100337.03;4416510;32;20014;-80
2022/05/08 04:05:05;;;;;;;;;;;;;;;16.71;56.50;100333.53;4415958;32;19985;-80
2022/05/08 04:07:33;;;;;;;;;;;;;;;16.66;56.74;100340.53;4416696;32;19986;-80
2022/05/08 04:09:59;;;;;;;;;;;;;;;16.84;56.55;100344.03;4416705;32;20341;-80
2022/05/08 04:12:28;;;;;;;;;;;;;;;16.85;56.41;100351.00;4416208;32;20460;-81
2022/05/08 04:14:54;;;;;;;;;;;;;;;16.81;56.76;100349.25;4415542;32;19958;-80
2022/05/08 04:17:22;;;;;;;;;;;;;;;16.94;56.56;100351.88;4415620;32;20296;-79
2022/05/08 04:19:50;;;;;;;;;;;;;;;16.98;56.54;100354.47;4416892;32;20323;-80
2022/05/08 04:25:03;;;;;;;;;;;;;;;17.06;57.09;100350.94;4416520;32;20465;-80
2022/05/08 04:27:30;;;;;;;;;;;;;;;17.12;57.04;100350.94;4416518;32;19982;-79
2022/05/08 04:29:56;;;;;;;;;;;;;;;17.09;57.16;100353.56;4416052;32;19990;-80
2022/05/08 04:32:24;;;;;;;;;;;;;;;17.20;57.28;100357.03;4416413;32;19996;-80
2022/05/08 04:34:51;;;;;;;;;;;;;;;17.34;56.74;100356.97;4416025;32;19995;-80
2022/05/08 04:37:17;;;;;;;;;;;;;;;17.46;56.99;100356.09;4388143;32;19982;-80
2022/05/08 04:39:44;;;;;;;;;;;;;;;17.27;57.84;100349.16;4401171;32;20005;-80
2022/05/08 04:42:11;;;;;;;;;;;;;;;17.54;56.60;100354.28;4400682;32;20361;-80
2022/05/08 04:44:38;;;;;;;;;;;;;;;17.55;56.87;100356.06;4400579;32;20008;-80
2022/05/08 04:47:05;;;;;;;;;;;;;;;17.64;56.84;100350.78;4401287;32;19983;-81
2022/05/08 04:49:32;;;;;;;;;;;;;;;17.75;56.63;100355.09;4400990;32;20731;-80
2022/05/08 04:51:58;;;;;;;;;;;;;;;17.88;56.46;100359.41;4399975;32;20049;-80
2022/05/08 04:54:25;;;;;;;;;;;;;;;17.80;57.31;100361.19;4391200;32;19994;-79
2022/05/08 04:56:52;;;;;;;;;;;;;;;17.95;57.05;100358.50;4400406;32;19967;-80
2022/05/08 04:59:19;;;;;;;;;;;;;;;17.97;57.13;100354.12;4400556;32;20002;-80
2022/05/08 05:01:46;;;;;;;;;;;;;;;18.02;57.27;100362.81;4400832;32;20000;-80
2022/05/08 05:04:13;;;;;;;;;;;;;;;18.21;55.93;100367.94;4400293;32;20383;-80
2022/05/08 05:06:42;;;;;;;;;;;;;;;18.16;56.99;100369.75;4400468;32;20038;-79
2022/05/08 05:09:09;;;;;;;;;;;;;;;18.42;55.17;100374.78;4412019;32;19986;-79
2022/05/08 05:11:35;;;;;;;;;;;;;;;18.44;55.45;100373.91;4397612;32;20004;-80
2022/05/08 05:14:02;;;;;;;;;;;;;;;18.48;56.26;100367.75;4400812;32;20331;-80
2022/05/08 05:16:29;;;;;;;;;;;;;;;18.53;56.54;100371.19;4398403;32;20024;-80
2022/05/08 05:18:56;;;;;;;;;;;;;;;18.69;55.79;100376.31;4400565;32;19998;-80
2022/05/08 05:21:23;;;;;;;;;;;;;;;18.73;55.13;100368.44;4401379;32;20018;-80
2022/05/08 05:23:50;;;;;;;;;;;;;;;18.75;55.20;100381.53;4401256;32;20969;-79
2022/05/08 05:26:17;;;;;;;;;;;;;;;18.94;54.87;100377.84;4400194;32;19994;-80
2022/05/08 05:28:47;;;;;;;;;;;;;;;19.04;54.78;100374.25;4401515;32;20001;-81
2022/05/08 05:31:14;;;;;;;;;;;;;;;18.99;55.12;100381.31;4399668;32;20342;-80
2022/05/08 05:33:41;;;;;;;;;;;;;;;19.07;55.15;100380.38;4398949;32;19982;-84
2022/05/08 05:36:07;;;;;;;;;;;;;;;19.28;54.49;100382.78;4401951;32;19981;-83
2022/05/08 05:38:34;;;;;;;;;;;;;;;19.38;53.73;100379.16;4399356;32;19999;-85
2022/05/08 05:41:01;;;;;;;;;;;;;;;19.54;53.28;100378.97;4408953;32;19981;-84
2022/05/08 05:43:28;;;;;;;;;;;;;;;19.71;52.42;100384.91;4415790;32;20046;-84
2022/05/08 05:48:40;;;;;;;;;;;;;;;19.69;52.37;100384.09;4413608;32;19985;-85
2022/05/08 05:51:07;;;;;;;;;;;;;;;19.81;52.42;100383.91;4415036;32;20335;-86
2022/05/08 05:53:34;;;;;;;;;;;;;;;19.89;52.61;100392.56;4413416;32;20359;-86
2022/05/08 05:56:01;;;;;;;;;;;;;;;19.91;52.14;100390.81;4415463;32;20511;-87
2022/05/08 05:58:34;;;;;;;;;;;;;;;20.07;52.11;100385.31;4412062;32;20013;-84
2022/05/08 06:01:01;;;;;;;;;;;;;;;20.26;51.83;100392.06;4412264;32;20001;-84
2022/05/08 06:03:28;;;;;;;;;;;;;;;20.29;51.68;100392.00;4414995;32;19997;-86
2022/05/08 06:05:55;;;;;;;;;;;;;;;20.36;51.74;100388.41;4414903;32;20025;-88
2022/05/08 06:08:21;;;;;;;;;;;;;;;20.56;51.11;100384.62;4415147;32;20180;-83
2022/05/08 06:10:48;;;;;;;;;;;;;;;20.69;50.84;100380.88;4415652;32;20039;-84
2022/05/08 06:13:15;;;;;;;;;;;;;;;20.81;50.69;100385.09;4415083;32;19987;-83
2022/05/08 06:15:42;;;;;;;;;;;;;;;20.54;50.54;100391.66;4414388;32;20015;-84
2022/05/08 06:18:10;;;;;;;;;;;;;;;20.53;49.75;100389.94;4407916;32;20006;-83
2022/05/08 06:20:37;;;;;;;;;;;;;;;20.84;49.56;100385.03;4399336;32;20001;-83
2022/05/08 06:23:03;;;;;;;;;;;;;;;21.11;48.79;100383.66;4415043;32;20340;-82
2022/05/08 06:25:30;;;;;;;;;;;;;;;20.84;48.90;100391.16;4415144;32;20006;-83
2022/05/08 06:27:57;;;;;;;;;;;;;;;20.85;46.55;100386.75;4415144;32;19981;-84
2022/05/08 06:30:24;;;;;;;;;;;;;;;21.07;46.33;100393.37;4413874;32;20053;-84
2022/05/08 06:32:51;;;;;;;;;;;;;;;21.45;46.44;100383.06;4412907;32;19993;-83
2022/05/08 06:35:37;;;;;;;;;;;;;;;21.89;44.09;100389.16;4414079;32;19978;-84
2022/05/08 06:38:04;;;;;;;;;;;;;;;22.23;43.60;100390.16;4414819;32;19982;-82
2022/05/08 06:40:32;;;;;;;;;;;;;;;22.48;41.95;100389.59;4412221;32;19974;-83
2022/05/08 06:42:58;;;;;;;;;;;;;;;22.73;41.73;100385.47;4413809;32;20040;-83
2022/05/08 06:45:25;;;;;;;;;;;;;;;22.99;40.94;100391.88;4413646;32;19982;-85
2022/05/08 06:47:54;;;;;;;;;;;;;;;23.41;40.60;100388.97;4401099;32;19986;-86
2022/05/08 06:50:21;;;;;;;;;;;;;;;23.57;40.67;100390.25;4424542;32;20108;-84
2022/05/08 06:52:48;;;;;;;;;;;;;;;23.72;41.00;100393.44;4411393;32;20335;-86
2022/05/08 06:55:15;;;;;;;;;;;;;;;24.21;39.23;100386.63;4411904;32;20073;-88
2022/05/08 06:57:42;;;;;;;;;;;;;;;24.19;39.03;100383.19;4412831;32;19993;-86
2022/05/08 07:02:55;;;;;;;;;;;;;;;24.49;38.14;100387.53;4406853;32;20001;-87
2022/05/08 07:05:22;;;;;;;;;;;;;;;24.44;39.22;100389.47;4408567;32;19998;-87
2022/05/08 07:07:50;;;;;;;;;;;;;;;24.96;38.35;100393.03;4411698;32;20056;-86
2022/05/08 07:10:17;;;;;;;;;;;;;;;25.31;36.32;100398.91;4410256;32;19999;-84
2022/05/08 07:12:44;;;;;;;;;;;;;;;25.24;35.72;100392.09;4410454;32;20008;-84
2022/05/08 07:15:11;;;;;;;;;;;;;;;25.51;35.96;100391.06;4412667;32;20061;-85
2022/05/08 07:17:38;;;;;;;;;;;;;;;25.48;35.63;100385.87;4410309;32;20043;-84
2022/05/08 07:20:05;;;;;;;;;;;;;;;25.42;35.71;100386.09;4413807;32;19981;-85
2022/05/08 07:22:34;;;;;;;;;;;;;;;25.32;35.51;100391.81;4414552;32;20012;-84
2022/05/08 07:25:01;;;;;;;;;;;;;;;25.84;34.93;100387.25;4413161;32;20823;-85
2022/05/08 07:27:29;;;;;;;;;;;;;;;26.09;34.90;100387.16;4413175;32;19982;-85
2022/05/08 07:30:01;;;;;;;;;;;;;;;26.31;35.72;100382.72;4417020;32;19997;-85
2022/05/08 07:32:29;;;;;;;;;;;;;;;26.30;33.58;100383.66;4416762;32;19995;-85
2022/05/08 07:37:43;;;;;;;;;;;;;;;26.07;35.29;100389.00;4416806;32;19997;-85
2022/05/08 07:40:11;;;;;;;;;;;;;;;25.86;36.27;100396.87;4415856;32;20040;-84
2022/05/08 07:42:38;;;;;;;;;;;;;;;25.93;34.98;100393.06;4415842;32;19990;-87
2022/05/08 07:45:08;;;;;;;;;;;;;;;26.08;35.53;100391.62;4390143;32;20536;-86
2022/05/08 07:47:35;;;;;;;;;;;;;;;26.16;35.16;100396.59;4401330;32;20092;-85
2022/05/08 07:50:02;;;;;;;;;;;;;;;26.23;34.49;100400.78;4415877;32;20012;-85
2022/05/08 07:52:30;;;;;;;;;;;;;;;26.48;33.99;100399.75;4416271;32;20323;-85
2022/05/08 07:54:57;;;;;;;;;;;;;;;26.54;34.22;100396.91;4416778;32;20308;-85
2022/05/08 07:57:24;;;;;;;;;;;;;;;26.84;33.85;100402.75;4416413;32;20036;-85
2022/05/08 07:59:51;;;;;;;;;;;;;;;26.64;34.32;100393.81;4398266;32;19983;-85
2022/05/08 08:02:18;;;;;;;;;;;;;;;26.41;34.28;100389.37;4386133;32;20366;-85
2022/05/08 08:04:45;;;;;;;;;;;;;;;26.73;32.79;100402.31;4386109;32;19974;-85
2022/05/08 08:07:12;;;;;;;;;;;;;;;26.67;32.49;100395.44;4386947;32;20002;-85
2022/05/08 08:09:39;;;;;;;;;;;;;;;26.67;34.20;100396.34;4400044;32;20045;-85
2022/05/08 08:12:06;;;;;;;;;;;;;;;27.05;33.02;100403.59;4400941;32;20025;-85
2022/05/08 08:14:33;;;;;;;;;;;;;;;26.95;35.26;100400.47;4400759;32;20281;-85
2022/05/08 08:17:14;;;;;;;;;;;;;;;26.96;32.79;100396.00;4400211;32;19990;-85
2022/05/08 08:19:45;;;;;;;;;;;;;;;26.82;32.09;100393.97;4401608;32;19989;-85
2022/05/08 08:22:12;;;;;;;;;;;;;;;26.66;32.10;100404.34;4400068;32;20112;-85
2022/05/08 08:24:40;;;;;;;;;;;;;;;26.96;32.93;100406.66;4400637;32;19979;-85
2022/05/08 08:27:09;;;;;;;;;;;;;;;27.32;32.30;100405.09;4401058;32;19986;-85
2022/05/08 08:29:36;;;;;;;;;;;;;;;27.72;31.98;100408.59;4400682;32;20000;-85
2022/05/08 08:32:03;;;;;;;;;;;;;;;28.11;31.91;100405.06;4399722;32;19994;-85
2022/05/08 08:34:31;;;;;;;;;;;;;;;27.90;31.46;100400.75;4401282;32;20017;-83
2022/05/08 08:36:58;;;;;;;;;;;;;;;27.70;33.42;100414.94;4401002;32;20170;-83
2022/05/08 08:39:25;;;;;;;;;;;;;;;27.45;31.43;100407.22;4400808;32;20339;-82
2022/05/08 08:42:00;;;;;;;;;;;;;;;27.82;30.49;100409.06;4400778;32;20041;-83
2022/05/08 08:49:59;;;;;;;;;;;;;;;27.29;33.84;100415.88;4384675;32;20324;-83
2022/05/08 08:52:27;;;;;;;;;;;;;;;27.42;31.48;100410.00;4388140;32;20028;-83
2022/05/08 08:54:53;;;;;;;;;;;;;;;27.66;28.85;100414.19;4384199;32;20000;-83
2022/05/08 08:57:20;;;;;;;;;;;;;;;27.14;33.84;100411.22;4383711;32;20754;-84
2022/05/08 08:59:47;;;;;;;;;;;;;;;27.00;33.27;100413.56;4385637;32;20457;-84
2022/05/08 09:02:15;;;;;;;;;;;;;;;27.34;31.85;100408.53;4374087;32;20524;-85
2022/05/08 09:04:44;;;;;;;;;;;;;;;27.70;30.62;100413.16;4376161;32;20424;-85
2022/05/08 09:07:29;;;;;;;;;;;;;;;28.07;30.59;100408.78;4369545;32;20370;-84
2022/05/08 09:10:06;;;;;;;;;;;;;;;27.98;31.24;100404.78;4369751;32;20041;-85
2022/05/08 09:12:33;;;;;;;;;;;;;;;27.76;29.96;100404.00;4372071;32;20037;-84
2022/05/08 09:15:16;;;;;;;;;;;;;;;27.51;31.37;100410.47;4368861;32;20034;-84
2022/05/08 09:17:43;;;;;;;;;;;;;;;27.93;31.42;100400.59;4373652;32;20014;-84
2022/05/08 09:20:27;;;;;;;;;;;;;;;27.87;31.34;100406.22;4373638;32;19983;-84
2022/05/08 09:23:00;;;;;;;;;;;;;;;27.46;31.33;100403.59;4369679;32;19987;-84
2022/05/08 09:25:48;;;;;;;;;;;;;;;27.97;32.19;100402.19;4370323;32;20029;-85
2022/05/08 09:28:40;;;;;;;;;;;;;;;27.89;32.76;100399.00;4370084;32;20474;-84
2022/05/08 09:31:11;;;;;;;;;;;;;;;28.20;32.04;100404.59;4370556;32;19979;-86
2022/05/08 09:33:40;;;;;;;;;;;;;;;28.36;31.25;100402.06;4376297;32;20021;-85
2022/05/08 09:36:25;;;;;;;;;;;;;;;28.51;30.25;100408.47;4368978;32;20022;-85
2022/05/08 09:38:52;;;;;;;;;;;;;;;28.11;32.87;100402.41;4375065;32;20004;-84
2022/05/08 09:41:34;;;;;;;;;;;;;;;28.07;30.31;100397.28;4370632;32;19975;-84
2022/05/08 09:44:10;;;;;;;;;;;;;;;28.18;33.76;100401.16;4370515;32;20009;-84
2022/05/08 09:46:43;;;;;;;;;;;;;;;27.70;30.77;100394.53;4364151;32;20001;-84
2022/05/08 09:49:11;;;;;;;;;;;;;;;27.64;31.19;100394.81;4355034;32;20029;-85
2022/05/08 09:51:38;;;;;;;;;;;;;;;27.73;30.25;100394.38;4352765;32;19997;-85
2022/05/08 09:54:05;;;;;;;;;;;;;;;28.23;30.98;100393.81;4364188;32;19983;-85
2022/05/08 09:56:32;;;;;;;;;;;;;;;27.88;30.38;100389.31;4373436;32;20355;-85
2022/05/08 09:59:00;;;;;;;;;;;;;;;28.25;30.66;100381.28;4366269;32;19986;-86
2022/05/08 10:01:27;;;;;;;;;;;;;;;27.67;30.25;100393.81;4372940;32;20344;-87
2022/05/08 10:03:55;;;;;;;;;;;;;;;27.63;30.37;100387.75;4365595;32;19979;-84
2022/05/08 10:06:22;;;;;;;;;;;;;;;27.78;30.25;100389.72;4375554;32;19999;-85
2022/05/08 10:08:49;;;;;;;;;;;;;;;28.20;30.04;100377.97;4368463;32;20688;-86
2022/05/08 10:14:05;;;;;;;;;;;;;;;28.26;31.87;100372.34;4373343;32;20041;-86
2022/05/08 10:16:48;;;;;;;;;;;;;;;28.35;30.07;100372.84;4368459;32;20028;-86
2022/05/08 10:19:18;;;;;;;;;;;;;;;28.14;29.66;100374.75;4368025;32;20062;-85
2022/05/08 10:21:59;;;;;;;;;;;;;;;28.29;30.90;100372.22;4374744;32;19994;-87
2022/05/08 10:24:27;;;;;;;;;;;;;;;28.20;30.14;100367.31;4369875;32;20006;-87
2022/05/08 10:27:14;;;;;;;;;;;;;;;27.82;29.65;100371.81;4364824;32;19991;-85
2022/05/08 10:29:53;;;;;;;;;;;;;;;28.02;29.81;100368.25;4375015;32;20351;-86
2022/05/08 10:32:32;;;;;;;;;;;;;;;27.91;30.23;100359.88;4384959;32;20002;-86
2022/05/08 10:35:09;;;;;;;;;;;;;;;28.18;31.82;100360.38;4388559;32;19982;-86
2022/05/08 10:37:49;;;;;;;;;;;;;;;28.20;29.79;100364.66;4390044;32;19994;-85
2022/05/08 10:40:22;;;;;;;;;;;;;;;27.55;29.82;100364.16;4384887;32;20037;-86
2022/05/08 10:42:49;;;;;;;;;;;;;;;28.02;31.72;100360.25;4385308;32;20418;-86
2022/05/08 10:45:41;;;;;;;;;;;;;;;27.61;29.98;100362.16;4383200;32;20020;-85
2022/05/08 10:48:12;;;;;;;;;;;;;;;27.96;31.32;100360.53;4388652;32;20031;-87
2022/05/08 10:50:40;;;;;;;;;;;;;;;28.17;30.16;100367.47;4388221;32;19997;-86
2022/05/08 10:53:19;;;;;;;;;;;;;;;28.27;29.48;100360.78;4385096;32;19990;-85
2022/05/08 10:55:46;;;;;;;;;;;;;;;27.86;32.19;100359.25;4383204;32;19999;-85
2022/05/08 10:58:14;;;;;;;;;;;;;;;27.61;33.14;100357.72;4384335;32;19982;-85
2022/05/08 11:00:46;;;;;;;;;;;;;;;27.86;32.53;100357.47;4385082;32;19988;-85
2022/05/08 11:03:19;;;;;;;;;;;;;;;27.55;33.93;100363.31;4385465;32;19990;-86
2022/05/08 11:05:46;;;;;;;;;;;;;;;27.06;34.23;100360.16;4380222;32;19990;-85
2022/05/08 11:08:21;;;;;;;;;;;;;;;27.41;34.28;100366.59;4379024;32;19998;-85
2022/05/08 11:10:55;;;;;;;;;;;;;;;27.51;33.62;100351.09;4401059;32;19986;-85
2022/05/08 11:13:24;;;;;;;;;;;;;;;27.20;34.21;100357.78;4401468;32;20020;-86
2022/05/08 11:15:50;;;;;;;;;;;;;;;27.00;33.82;100360.44;4400612;32;20008;-86
2022/05/08 11:18:22;;;;;;;;;;;;;;;27.44;33.59;100354.94;4397657;32;19997;-85
2022/05/08 11:20:53;;;;;;;;;;;;;;;27.65;32.95;100343.31;4401749;32;20330;-85
2022/05/08 11:23:24;;;;;;;;;;;;;;;27.32;33.56;100343.09;4401895;32;19994;-86
2022/05/08 11:25:55;;;;;;;;;;;;;;;27.56;33.04;100349.91;4080878;32;10004638;-85
2022/05/08 11:28:25;;;;;;;;;;;;;;;27.81;32.64;100344.34;4395870;32;20005;-85
2022/05/08 11:30:52;;;;;;;;;;;;;;;27.84;31.70;100342.50;4400442;32;19978;-85
2022/05/08 11:36:21;;;;;;;;;;;;;;;27.68;32.45;100337.84;4400770;32;20036;-85
2022/05/08 11:38:55;;;;;;;;;;;;;;;27.69;32.06;100334.25;4400250;32;20507;-86
2022/05/08 11:41:24;;;;;;;;;;;;;;;27.35;32.67;100330.50;4399608;32;20483;-85
2022/05/08 11:43:52;;;;;;;;;;;;;;;27.47;34.08;100334.41;4398736;32;20002;-85
2022/05/08 11:46:20;;;;;;;;;;;;;;;27.58;32.87;100336.56;4386556;32;20751;-85
2022/05/08 11:48:52;;;;;;;;;;;;;;;27.55;34.53;100331.41;4377742;32;19986;-86
2022/05/08 11:51:20;;;;;;;;;;;;;;;27.80;31.86;100332.00;4374338;32;19975;-85
2022/05/08 11:53:49;;;;;;;;;;;;;;;27.79;31.39;100329.41;4369444;32;20006;-85
2022/05/08 11:56:26;;;;;;;;;;;;;;;27.29;31.83;100335.25;4368049;32;19994;-82
2022/05/08 11:58:56;;;;;;;;;;;;;;;27.02;32.33;100337.28;4365462;32;20032;-83
2022/05/08 12:01:25;;;;;;;;;;;;;;;27.28;33.16;100329.06;4398684;32;20007;-83
2022/05/08 12:03:52;;;;;;;;;;;;;;;27.06;34.41;100333.59;4365867;32;19967;-85
2022/05/08 12:06:19;;;;;;;;;;;;;;;26.95;33.75;100335.84;4364293;32;20307;-85
2022/05/08 12:08:52;;;;;;;;;;;;;;;26.96;33.25;100324.28;4370593;32;20033;-85
2022/05/08 12:11:26;;;;;;;;;;;;;;;27.31;31.42;100318.31;4369943;32;20010;-85
2022/05/08 12:14:00;;;;;;;;;;;;;;;27.11;32.41;100321.81;4366967;32;19987;-85
2022/05/08 12:16:27;;;;;;;;;;;;;;;27.21;30.68;100309.00;4368606;32;20771;-86
2022/05/08 12:19:13;;;;;;;;;;;;;;;27.29;32.06;100319.28;4375337;32;20387;-85
2022/05/08 12:21:39;;;;;;;;;;;;;;;27.65;31.32;100314.06;4373651;32;20348;-86
2022/05/08 12:24:07;;;;;;;;;;;;;;;27.67;30.30;100304.22;4368075;32;19990;-86
2022/05/08 12:26:34;;;;;;;;;;;;;;;27.49;30.95;100310.41;4373814;32;19982;-86
2022/05/08 12:29:01;;;;;;;;;;;;;;;27.80;29.99;100300.06;4366209;32;20037;-86
2022/05/08 12:31:28;;;;;;;;;;;;;;;27.76;32.26;100301.13;4344841;32;782768;-87
2022/05/08 12:33:55;;;;;;;;;;;;;;;27.72;31.34;100299.53;4381347;32;19994;-88
2022/05/08 12:36:22;;;;;;;;;;;;;;;27.80;31.29;100300.06;4379592;32;19991;-87
2022/05/08 12:38:49;;;;;;;;;;;;;;;27.91;31.21;100296.88;4383101;32;19994;-86
2022/05/08 12:41:16;;;;;;;;;;;;;;;27.54;32.74;100297.75;4383422;32;19991;-86
2022/05/08 12:43:43;;;;;;;;;;;;;;;27.44;32.00;100291.13;4383534;32;20042;-86
2022/05/08 12:46:13;;;;;;;;;;;;;;;27.72;30.41;100288.88;4377826;32;20008;-83
2022/05/08 12:48:40;;;;;;;;;;;;;;;27.98;31.09;100292.13;4375495;32;20012;-80
2022/05/08 12:51:12;;;;;;;;;;;;;;;27.86;29.73;100295.41;4378831;32;20024;-84
2022/05/08 12:53:41;;;;;;;;;;;;;;;27.90;30.09;100286.31;4377865;32;20017;-82
2022/05/08 12:56:09;;;;;;;;;;;;;;;27.80;30.26;100284.09;4380130;32;19975;-81
2022/05/08 13:01:21;;;;;;;;;;;;;;;27.61;29.84;100282.38;4379539;32;20497;-84
2022/05/08 13:03:48;;;;;;;;;;;;;;;27.68;29.63;100274.03;4376760;32;19996;-83
2022/05/08 13:06:15;;;;;;;;;;;;;;;27.41;31.38;100272.66;4378893;32;19994;-82
2022/05/08 13:08:42;;;;;;;;;;;;;;;27.21;34.97;100271.78;4378463;32;19998;-84
2022/05/08 13:11:11;;;;;;;;;;;;;;;27.44;33.12;100269.84;4377952;32;20013;-85
2022/05/08 13:13:38;;;;;;;;;;;;;;;27.57;32.50;100271.03;4375697;32;19974;-84
2022/05/08 13:16:05;;;;;;;;;;;;;;;27.41;33.46;100264.69;4383777;32;19994;-82